sensor_id;sensor_type;location;lat;lon;timestamp;pressure;altitude;pressure_sealevel;temperature;humidity
42451;BME280;28080;51.138;17.170;2024-03-17T00:00:05;100497.41;;;6.04;76.57
42451;BME280;28080;51.138;17.170;2024-03-17T00:10:34;100504.73;;;5.89;76.93
42451;BME280;28080;51.138;17.170;2024-03-17T00:20:59;100520.00;;;5.75;77.22
42451;BME280;28080;51.138;17.170;2024-03-17T00:31:24;100519.47;;;5.62;77.22
42451;BME280;28080;51.138;17.170;2024-03-17T00:41:49;100520.73;;;5.51;77.83
42451;BME280;28080;51.138;17.170;2024-03-17T00:52:14;100524.02;;;5.37;78.67
42451;BME280;28080;51.138;17.170;2024-03-17T01:02:39;100528.61;;;5.25;79.25
42451;BME280;28080;51.138;17.170;2024-03-17T01:12:46;100533.40;;;5.12;79.69
42451;BME280;28080;51.138;17.170;2024-03-17T01:23:12;100530.95;;;5.03;80.32
42451;BME280;28080;51.138;17.170;2024-03-17T01:33:38;100531.89;;;4.96;80.64
42451;BME280;28080;51.138;17.170;2024-03-17T01:44:04;100543.38;;;4.89;80.81
42451;BME280;28080;51.138;17.170;2024-03-17T01:54:30;100544.58;;;4.85;80.76
42451;BME280;28080;51.138;17.170;2024-03-17T02:04:55;100543.98;;;4.76;80.72
42451;BME280;28080;51.138;17.170;2024-03-17T02:15:20;100549.15;;;4.62;81.10
42451;BME280;28080;51.138;17.170;2024-03-17T02:25:46;100558.56;;;4.60;81.10
42451;BME280;28080;51.138;17.170;2024-03-17T02:36:13;100551.14;;;4.49;81.12
42451;BME280;28080;51.138;17.170;2024-03-17T02:46:39;100556.94;;;4.29;81.35
42451;BME280;28080;51.138;17.170;2024-03-17T02:57:05;100567.95;;;4.09;81.05
42451;BME280;28080;51.138;17.170;2024-03-17T03:07:30;100576.79;;;3.91;80.52
42451;BME280;28080;51.138;17.170;2024-03-17T03:17:55;100582.38;;;3.83;81.14
42451;BME280;28080;51.138;17.170;2024-03-17T03:28:11;100585.48;;;3.78;81.70
42451;BME280;28080;51.138;17.170;2024-03-17T03:38:36;100586.55;;;3.71;82.08
42451;BME280;28080;51.138;17.170;2024-03-17T03:49:01;100582.27;;;3.69;82.16
42451;BME280;28080;51.138;17.170;2024-03-17T03:59:26;100583.36;;;3.67;82.12
42451;BME280;28080;51.138;17.170;2024-03-17T04:09:51;100579.71;;;3.62;82.24
42451;BME280;28080;51.138;17.170;2024-03-17T04:20:16;100584.82;;;3.52;82.66
42451;BME280;28080;51.138;17.170;2024-03-17T04:30:41;100586.26;;;3.38;82.83
42451;BME280;28080;51.138;17.170;2024-03-17T04:41:05;100591.22;;;3.20;82.93
42451;BME280;28080;51.138;17.170;2024-03-17T04:51:32;100605.56;;;3.07;83.31
42451;BME280;28080;51.138;17.170;2024-03-17T05:01:58;100606.95;;;2.99;83.61
42451;BME280;28080;51.138;17.170;2024-03-17T05:12:23;100607.65;;;2.92;83.97
42451;BME280;28080;51.138;17.170;2024-03-17T05:22:48;100619.68;;;2.88;84.13
42451;BME280;28080;51.138;17.170;2024-03-17T05:33:13;100627.54;;;2.84;84.22
42451;BME280;28080;51.138;17.170;2024-03-17T05:43:28;100630.30;;;2.85;84.46
42451;BME280;28080;51.138;17.170;2024-03-17T05:53:53;100636.35;;;2.85;84.33
42451;BME280;28080;51.138;17.170;2024-03-17T06:04:19;100643.61;;;2.91;84.20
42451;BME280;28080;51.138;17.170;2024-03-17T06:14:38;100640.12;;;3.00;83.49
42451;BME280;28080;51.138;17.170;2024-03-17T06:24:46;100648.14;;;3.11;82.97
42451;BME280;28080;51.138;17.170;2024-03-17T06:35:11;100660.06;;;3.24;81.97
42451;BME280;28080;51.138;17.170;2024-03-17T06:45:21;100677.42;;;3.42;80.48
42451;BME280;28080;51.138;17.170;2024-03-17T06:55:53;100688.99;;;3.63;78.61
42451;BME280;28080;51.138;17.170;2024-03-17T07:06:18;100689.66;;;3.90;77.61
42451;BME280;28080;51.138;17.170;2024-03-17T07:16:43;100697.58;;;4.16;75.10
42451;BME280;28080;51.138;17.170;2024-03-17T07:27:08;100697.49;;;4.36;74.35
42451;BME280;28080;51.138;17.170;2024-03-17T07:37:36;100707.45;;;4.57;72.50
42451;BME280;28080;51.138;17.170;2024-03-17T07:48:03;100700.40;;;4.73;71.80
42451;BME280;28080;51.138;17.170;2024-03-17T07:58:29;100698.93;;;4.86;71.14
42451;BME280;28080;51.138;17.170;2024-03-17T08:08:56;100701.18;;;4.92;71.12
42451;BME280;28080;51.138;17.170;2024-03-17T08:19:21;100700.50;;;4.91;69.91
42451;BME280;28080;51.138;17.170;2024-03-17T08:29:46;100702.56;;;5.03;69.37
42451;BME280;28080;51.138;17.170;2024-03-17T08:40:12;100702.66;;;5.26;67.20
42451;BME280;28080;51.138;17.170;2024-03-17T08:50:37;100702.61;;;5.33;64.95
42451;BME280;28080;51.138;17.170;2024-03-17T09:01:07;100701.67;;;5.25;63.91
42451;BME280;28080;51.138;17.170;2024-03-17T09:11:32;100702.25;;;5.34;62.37
42451;BME280;28080;51.138;17.170;2024-03-17T09:21:57;100700.11;;;5.46;60.10
42451;BME280;28080;51.138;17.170;2024-03-17T09:32:19;100705.55;;;5.44;61.88
42451;BME280;28080;51.138;17.170;2024-03-17T09:42:44;100701.20;;;5.50;61.34
42451;BME280;28080;51.138;17.170;2024-03-17T09:53:15;100702.52;;;5.72;60.75
42451;BME280;28080;51.138;17.170;2024-03-17T10:03:44;100699.08;;;5.86;57.99
42451;BME280;28080;51.138;17.170;2024-03-17T10:14:12;100686.29;;;6.24;56.81
42451;BME280;28080;51.138;17.170;2024-03-17T10:24:40;100685.40;;;6.52;56.22
42451;BME280;28080;51.138;17.170;2024-03-17T10:35:29;100685.73;;;6.66;55.37
42451;BME280;28080;51.138;17.170;2024-03-17T10:45:55;100686.85;;;6.55;55.78
42451;BME280;28080;51.138;17.170;2024-03-17T10:56:21;100687.44;;;6.62;56.51
42451;BME280;28080;51.138;17.170;2024-03-17T11:06:47;100678.16;;;6.94;53.14
42451;BME280;28080;51.138;17.170;2024-03-17T11:17:19;100670.86;;;7.28;51.20
42451;BME280;28080;51.138;17.170;2024-03-17T11:27:43;100665.55;;;7.43;51.44
42451;BME280;28080;51.138;17.170;2024-03-17T11:38:08;100658.59;;;7.39;52.25
42451;BME280;28080;51.138;17.170;2024-03-17T11:48:33;100653.92;;;7.42;51.97
42451;BME280;28080;51.138;17.170;2024-03-17T11:59:09;100644.30;;;7.55;50.80
42451;BME280;28080;51.138;17.170;2024-03-17T12:09:33;100637.86;;;7.51;50.81
42451;BME280;28080;51.138;17.170;2024-03-17T12:19:58;100638.98;;;7.33;50.86
42451;BME280;28080;51.138;17.170;2024-03-17T12:30:24;100628.81;;;7.63;49.48
42451;BME280;28080;51.138;17.170;2024-03-17T12:40:35;100608.98;;;7.90;47.43
42451;BME280;28080;51.138;17.170;2024-03-17T12:51:00;100604.33;;;8.16;49.27
42451;BME280;28080;51.138;17.170;2024-03-17T13:01:25;100606.29;;;8.03;50.46
42451;BME280;28080;51.138;17.170;2024-03-17T13:11:40;100595.78;;;8.08;48.65
42451;BME280;28080;51.138;17.170;2024-03-17T13:22:05;100592.19;;;8.22;50.31
42451;BME280;28080;51.138;17.170;2024-03-17T13:32:31;100587.20;;;8.24;50.79
42451;BME280;28080;51.138;17.170;2024-03-17T13:42:56;100582.27;;;8.44;47.51
42451;BME280;28080;51.138;17.170;2024-03-17T13:53:21;100581.83;;;8.54;47.78
42451;BME280;28080;51.138;17.170;2024-03-17T14:03:46;100583.42;;;8.57;45.23
42451;BME280;28080;51.138;17.170;2024-03-17T14:14:11;100568.88;;;8.47;45.38
42451;BME280;28080;51.138;17.170;2024-03-17T14:24:19;100566.01;;;8.45;45.22
42451;BME280;28080;51.138;17.170;2024-03-17T14:34:44;100568.88;;;8.25;44.69
42451;BME280;28080;51.138;17.170;2024-03-17T14:45:12;100583.60;;;7.89;45.31
42451;BME280;28080;51.138;17.170;2024-03-17T14:55:37;100584.62;;;7.75;45.97
42451;BME280;28080;51.138;17.170;2024-03-17T15:05:55;100580.23;;;7.75;45.63
42451;BME280;28080;51.138;17.170;2024-03-17T15:16:20;100579.36;;;7.64;45.82
42451;BME280;28080;51.138;17.170;2024-03-17T15:26:46;100577.36;;;7.50;46.93
42451;BME280;28080;51.138;17.170;2024-03-17T15:37:13;100578.09;;;7.34;47.37
42451;BME280;28080;51.138;17.170;2024-03-17T15:47:39;100588.73;;;7.16;49.08
42451;BME280;28080;51.138;17.170;2024-03-17T15:58:05;100590.02;;;7.06;51.32
42451;BME280;28080;51.138;17.170;2024-03-17T16:08:30;100593.05;;;6.92;53.00
42451;BME280;28080;51.138;17.170;2024-03-17T16:18:55;100597.64;;;6.82;53.15
42451;BME280;28080;51.138;17.170;2024-03-17T16:29:14;100605.49;;;6.68;54.33
42451;BME280;28080;51.138;17.170;2024-03-17T16:39:39;100613.93;;;6.53;55.76
42451;BME280;28080;51.138;17.170;2024-03-17T16:50:06;100615.18;;;6.39;56.95
42451;BME280;28080;51.138;17.170;2024-03-17T17:00:33;100623.48;;;6.22;58.56
42451;BME280;28080;51.138;17.170;2024-03-17T17:10:58;100628.45;;;6.00;59.54
42451;BME280;28080;51.138;17.170;2024-03-17T17:21:24;100638.25;;;5.74;60.07
42451;BME280;28080;51.138;17.170;2024-03-17T17:31:39;100648.81;;;5.60;60.19
42451;BME280;28080;51.138;17.170;2024-03-17T17:42:05;100653.24;;;5.47;59.84
42451;BME280;28080;51.138;17.170;2024-03-17T17:52:31;100655.73;;;5.35;59.95
42451;BME280;28080;51.138;17.170;2024-03-17T18:02:49;100651.05;;;5.24;59.56
42451;BME280;28080;51.138;17.170;2024-03-17T18:13:14;100648.34;;;5.13;60.67
42451;BME280;28080;51.138;17.170;2024-03-17T18:23:40;100651.91;;;5.04;61.52
42451;BME280;28080;51.138;17.170;2024-03-17T18:34:01;100651.45;;;4.91;62.18
42451;BME280;28080;51.138;17.170;2024-03-17T18:44:26;100654.31;;;4.83;62.66
42451;BME280;28080;51.138;17.170;2024-03-17T18:55:12;100663.88;;;4.71;62.85
42451;BME280;28080;51.138;17.170;2024-03-17T19:05:37;100659.81;;;4.57;63.26
42451;BME280;28080;51.138;17.170;2024-03-17T19:16:04;100661.83;;;4.48;64.06
42451;BME280;28080;51.138;17.170;2024-03-17T19:26:29;100666.29;;;4.44;64.52
42451;BME280;28080;51.138;17.170;2024-03-17T19:36:47;100658.31;;;4.38;64.61
42451;BME280;28080;51.138;17.170;2024-03-17T19:47:01;100657.01;;;4.29;64.76
42451;BME280;28080;51.138;17.170;2024-03-17T19:57:26;100662.60;;;4.28;65.25
42451;BME280;28080;51.138;17.170;2024-03-17T20:07:48;100663.58;;;4.30;65.17
42451;BME280;28080;51.138;17.170;2024-03-17T20:18:14;100664.05;;;4.31;65.05
42451;BME280;28080;51.138;17.170;2024-03-17T20:28:39;100659.40;;;4.25;64.56
42451;BME280;28080;51.138;17.170;2024-03-17T20:39:04;100656.39;;;4.27;64.79
42451;BME280;28080;51.138;17.170;2024-03-17T20:49:21;100661.25;;;4.32;64.91
42451;BME280;28080;51.138;17.170;2024-03-17T20:59:46;100662.52;;;4.30;64.99
42451;BME280;28080;51.138;17.170;2024-03-17T21:09:53;100654.02;;;4.25;65.07
42451;BME280;28080;51.138;17.170;2024-03-17T21:20:10;100648.09;;;4.20;64.83
42451;BME280;28080;51.138;17.170;2024-03-17T21:30:36;100639.31;;;4.07;64.74
42451;BME280;28080;51.138;17.170;2024-03-17T21:41:01;100637.64;;;4.05;65.22
42451;BME280;28080;51.138;17.170;2024-03-17T21:51:35;100634.94;;;3.97;65.24
42451;BME280;28080;51.138;17.170;2024-03-17T22:02:00;100634.94;;;3.84;65.48
42451;BME280;28080;51.138;17.170;2024-03-17T22:12:25;100637.51;;;3.73;65.30
42451;BME280;28080;51.138;17.170;2024-03-17T22:22:50;100637.14;;;3.74;65.99
42451;BME280;28080;51.138;17.170;2024-03-17T22:33:15;100632.12;;;3.74;66.34
42451;BME280;28080;51.138;17.170;2024-03-17T22:43:41;100632.03;;;3.65;66.42
42451;BME280;28080;51.138;17.170;2024-03-17T22:54:06;100631.82;;;3.53;66.96
42451;BME280;28080;51.138;17.170;2024-03-17T23:04:32;100637.70;;;3.47;67.25
42451;BME280;28080;51.138;17.170;2024-03-17T23:14:57;100632.77;;;3.37;67.45
42451;BME280;28080;51.138;17.170;2024-03-17T23:25:21;100630.23;;;3.29;66.69
42451;BME280;28080;51.138;17.170;2024-03-17T23:35:38;100626.34;;;3.19;65.52
42451;BME280;28080;51.138;17.170;2024-03-17T23:45:54;100624.88;;;3.09;66.04
42451;BME280;28080;51.138;17.170;2024-03-17T23:56:19;100619.11;;;2.97;66.06
